Time;durP1;ratioP1;P1;durP2;ratioP2;P2;SDS_P1;SDS_P2;PMS_P1;PMS_P2;Temp;Humidity;BMP_temperature;BMP_pressure;BME280_temperature;BME280_humidity;BME280_pressure;Samples;Min_cycle;Max_cycle;Signal;HPM_P1;HPM_P2
2022/03/02 00:01:41;;;;;;;21.10;13.20;;;2.50;1.00;;;;;;5055381;28;20433;-65
2022/03/02 00:04:07;;;;;;;22.70;11.70;;;2.50;1.00;;;;;;5039090;28;20195;-65
2022/03/02 00:06:33;;;;;;;23.17;14.23;;;2.40;1.00;;;;;;5035378;28;20203;-72
2022/03/02 00:08:59;;;;;;;30.43;14.40;;;2.30;1.00;;;;;;5048251;28;20425;-66
2022/03/02 00:11:24;;;;;;;29.00;13.83;;;2.20;1.00;;;;;;5053237;28;20191;-72
2022/03/02 00:13:50;;;;;;;26.40;13.20;;;2.30;1.00;;;;;;5042864;28;20206;-72
2022/03/02 00:16:19;;;;;;;27.17;14.20;;;2.20;1.00;;;;;;5035208;28;20421;-66
2022/03/02 00:18:44;;;;;;;21.17;13.20;;;2.00;1.00;;;;;;5044513;28;20199;-66
2022/03/02 00:21:10;;;;;;;20.70;12.10;;;1.80;1.00;;;;;;5055029;28;20508;-66
2022/03/02 00:23:36;;;;;;;27.73;14.40;;;1.80;1.00;;;;;;5045891;28;20184;-66
2022/03/02 00:26:02;;;;;;;25.40;12.60;;;1.90;1.00;;;;;;5034873;28;20234;-70
2022/03/02 00:28:28;;;;;;;22.50;14.23;;;1.90;1.00;;;;;;5034171;28;20882;-73
2022/03/02 00:30:54;;;;;;;28.03;14.37;;;1.90;1.00;;;;;;5034224;28;20488;-72
2022/03/02 00:33:19;;;;;;;25.00;13.47;;;1.90;1.00;;;;;;5054148;28;20202;-72
2022/03/02 00:35:45;;;;;;;22.77;13.50;;;1.90;1.00;;;;;;5054889;28;20405;-72
2022/03/02 00:38:11;;;;;;;23.50;12.43;;;1.90;1.00;;;;;;5036568;28;20295;-72
2022/03/02 00:40:38;;;;;;;25.00;12.73;;;1.90;1.00;;;;;;5046179;28;20496;-72
2022/03/02 00:43:05;;;;;;;31.37;14.53;;;1.90;1.00;;;;;;5054626;28;20178;-72
2022/03/02 00:45:32;;;;;;;27.00;14.00;;;1.90;1.00;;;;;;5042479;28;20429;-72
2022/03/02 00:47:58;;;;;;;30.10;13.37;;;1.90;1.00;;;;;;5034579;28;20452;-72
2022/03/02 00:50:24;;;;;;;25.13;14.33;;;2.00;1.00;;;;;;5034682;28;20509;-72
2022/03/02 00:52:51;;;;;;;26.77;14.10;;;1.90;1.00;;;;;;5034345;28;20501;-71
2022/03/02 00:55:17;;;;;;;20.97;14.00;;;2.00;1.00;;;;;;5042174;28;20483;-72
2022/03/02 00:57:44;;;;;;;21.43;12.20;;;2.00;1.00;;;;;;5054468;28;20393;-65
2022/03/02 01:00:11;;;;;;;30.00;14.23;;;2.00;1.00;;;;;;5046522;28;20726;-66
2022/03/02 01:02:37;;;;;;;28.90;15.50;;;2.00;1.00;;;;;;5033788;28;20521;-72
2022/03/02 01:05:04;;;;;;;27.10;14.60;;;2.00;1.00;;;;;;5036271;28;20453;-65
2022/03/02 01:07:30;;;;;;;34.47;14.10;;;2.00;1.00;;;;;;5043288;28;20175;-66
2022/03/02 01:09:55;;;;;;;25.73;14.07;;;2.00;1.00;;;;;;5033299;28;20467;-70
2022/03/02 01:12:22;;;;;;;31.47;16.53;;;1.90;1.00;;;;;;5037371;28;20194;-72
2022/03/02 01:14:47;;;;;;;19.57;13.40;;;1.90;1.00;;;;;;5054019;28;20171;-65
2022/03/02 01:17:13;;;;;;;26.50;13.37;;;1.90;1.00;;;;;;5052005;28;20418;-66
2022/03/02 01:19:39;;;;;;;24.23;14.90;;;1.90;1.00;;;;;;5032534;28;20226;-65
2022/03/02 01:22:05;;;;;;;22.70;14.40;;;1.80;1.00;;;;;;5033912;28;20538;-71
2022/03/02 01:24:31;;;;;;;29.43;15.23;;;1.70;1.00;;;;;;5053595;28;20171;-71
2022/03/02 01:26:57;;;;;;;25.27;14.17;;;1.80;1.00;;;;;;5053779;28;20408;-66
2022/03/02 01:29:23;;;;;;;19.07;12.47;;;1.80;1.00;;;;;;5034517;28;20433;-65
2022/03/02 01:31:49;;;;;;;29.77;13.87;;;1.80;1.00;;;;;;5033764;28;20193;-65
2022/03/02 01:34:15;;;;;;;22.73;12.93;;;1.70;1.00;;;;;;5049727;28;21043;-70
2022/03/02 01:36:40;;;;;;;19.70;13.03;;;1.70;1.00;;;;;;5053046;28;20440;-66
2022/03/02 01:39:06;;;;;;;29.27;13.10;;;1.70;1.00;;;;;;5038111;28;20465;-65
2022/03/02 01:41:33;;;;;;;32.50;14.50;;;1.70;1.00;;;;;;5035144;28;20214;-72
2022/03/02 01:43:59;;;;;;;25.77;14.13;;;1.70;1.00;;;;;;5053532;28;20166;-66
2022/03/02 01:46:25;;;;;;;20.57;12.37;;;1.70;1.00;;;;;;5052882;28;20398;-66
2022/03/02 01:48:53;;;;;;;30.60;15.43;;;1.70;1.00;;;;;;5032653;28;20171;-65
2022/03/02 01:51:18;;;;;;;23.27;14.07;;;1.70;1.00;;;;;;5033138;28;20207;-73
2022/03/02 01:53:44;;;;;;;26.63;13.40;;;1.70;1.00;;;;;;5051234;28;20786;-71
2022/03/02 01:56:11;;;;;;;23.07;13.30;;;1.60;1.00;;;;;;5053378;28;20296;-73
2022/03/02 01:58:37;;;;;;;26.00;13.77;;;1.50;1.00;;;;;;5034979;28;20540;-71
2022/03/02 02:01:04;;;;;;;28.73;15.27;;;1.40;1.00;;;;;;5033233;28;20934;-66
2022/03/02 02:03:30;;;;;;;28.77;14.17;;;1.40;1.00;;;;;;5036459;28;20934;-66
2022/03/02 02:05:56;;;;;;;31.70;14.97;;;1.50;1.00;;;;;;5033204;28;20394;-70
2022/03/02 02:08:22;;;;;;;26.40;14.17;;;1.50;1.00;;;;;;5033189;28;20414;-66
2022/03/02 02:10:48;;;;;;;28.27;14.27;;;1.50;1.00;;;;;;5031720;28;20908;-72
2022/03/02 02:13:14;;;;;;;31.00;14.17;;;1.50;1.00;;;;;;5048845;28;20682;-69
2022/03/02 02:15:39;;;;;;;29.80;15.20;;;1.50;1.00;;;;;;5052852;28;20397;-65
2022/03/02 02:18:06;;;;;;;34.70;14.63;;;1.50;1.00;;;;;;5034448;28;20575;-72
2022/03/02 02:20:38;;;;;;;26.37;13.90;;;1.40;1.00;;;;;;5031317;28;20489;-67
2022/03/02 02:23:04;;;;;;;23.70;12.73;;;1.40;1.00;;;;;;5049824;28;20417;-71
2022/03/02 02:25:30;;;;;;;29.40;14.77;;;1.40;1.00;;;;;;5051113;28;20475;-72
2022/03/02 02:27:56;;;;;;;26.10;14.60;;;1.40;1.00;;;;;;5052544;28;20451;-67
2022/03/02 02:30:22;;;;;;;26.33;14.50;;;1.40;1.00;;;;;;5043430;28;20176;-66
2022/03/02 02:32:47;;;;;;;21.00;13.03;;;1.40;1.00;;;;;;5032881;28;20254;-72
2022/03/02 02:35:13;;;;;;;22.27;13.93;;;1.40;1.00;;;;;;5037551;28;20413;-71
2022/03/02 02:37:39;;;;;;;22.60;13.03;;;1.40;1.00;;;;;;5052775;28;20242;-72
2022/03/02 02:40:19;;;;;;;27.67;13.73;;;1.40;1.00;;;;;;5046089;28;20282;-71
2022/03/02 02:42:47;;;;;;;21.10;12.50;;;1.40;1.00;;;;;;5032684;28;20433;-65
2022/03/02 02:45:17;;;;;;;30.43;14.07;;;1.30;1.00;;;;;;5036832;28;20459;-71
2022/03/02 02:47:44;;;;;;;20.87;11.60;;;1.30;1.00;;;;;;5052791;28;20890;-72
2022/03/02 02:50:20;;;;;;;27.20;14.60;;;1.30;1.00;;;;;;5047668;28;20437;-65
2022/03/02 02:52:46;;;;;;;29.40;14.67;;;1.30;1.00;;;;;;5032739;28;20893;-71
2022/03/02 02:55:13;;;;;;;24.63;13.10;;;1.20;1.00;;;;;;5033703;28;20429;-71
2022/03/02 02:57:39;;;;;;;19.17;13.50;;;1.10;1.00;;;;;;5032773;28;20437;-65
2022/03/02 03:00:08;;;;;;;25.23;14.07;;;1.10;1.00;;;;;;5033358;28;20788;-72
2022/03/02 03:02:34;;;;;;;24.90;13.60;;;1.10;1.00;;;;;;5052566;28;20760;-66
2022/03/02 03:05:00;;;;;;;26.30;14.80;;;1.10;1.00;;;;;;5043837;28;20464;-66
2022/03/02 03:07:26;;;;;;;25.70;12.57;;;1.10;1.00;;;;;;5032619;28;20207;-66
2022/03/02 03:09:52;;;;;;;24.37;13.43;;;1.10;1.00;;;;;;5037508;28;20425;-67
2022/03/02 03:12:18;;;;;;;25.10;13.15;;;1.00;1.00;;;;;;5052144;28;20198;-72
2022/03/02 03:14:43;;;;;;;27.53;12.27;;;1.00;1.00;;;;;;5047749;28;20184;-71
2022/03/02 03:17:09;;;;;;;33.33;14.23;;;1.00;1.00;;;;;;5032681;28;20401;-72
2022/03/02 03:19:35;;;;;;;25.67;13.80;;;1.00;1.00;;;;;;5033942;28;20241;-66
2022/03/02 03:22:05;;;;;;;18.90;11.30;;;0.90;1.00;;;;;;5051507;28;20187;-71
2022/03/02 03:24:31;;;;;;;20.60;12.32;;;0.90;1.00;;;;;;5049297;28;20422;-67
2022/03/02 03:26:57;;;;;;;32.17;14.20;;;0.90;1.00;;;;;;5032444;28;20164;-72
2022/03/02 03:29:22;;;;;;;21.67;12.90;;;0.90;1.00;;;;;;5033598;28;20183;-72
2022/03/02 03:31:48;;;;;;;19.13;13.17;;;0.90;1.00;;;;;;5035200;28;20203;-71
2022/03/02 03:34:14;;;;;;;27.90;13.43;;;0.90;1.00;;;;;;5036027;28;20179;-66
2022/03/02 03:36:41;;;;;;;27.33;14.53;;;0.90;1.00;;;;;;5034932;28;20172;-72
2022/03/02 03:39:07;;;;;;;25.20;13.52;;;0.90;1.00;;;;;;5034590;28;20187;-65
2022/03/02 03:41:33;;;;;;;27.67;15.33;;;0.90;1.00;;;;;;5055767;28;20666;-72
2022/03/02 03:43:59;;;;;;;24.95;13.73;;;0.90;1.00;;;;;;5055717;28;20922;-72
2022/03/02 03:46:25;;;;;;;26.13;13.10;;;0.90;1.00;;;;;;5036692;28;20207;-67
2022/03/02 03:48:50;;;;;;;28.80;14.90;;;0.80;1.00;;;;;;5034877;28;20172;-65
2022/03/02 03:51:16;;;;;;;25.93;14.80;;;0.80;1.00;;;;;;5052163;28;20675;-67
2022/03/02 03:53:42;;;;;;;28.90;13.93;;;0.80;1.00;;;;;;5055470;28;20216;-66
2022/03/02 03:56:07;;;;;;;32.90;16.70;;;0.80;1.00;;;;;;5039514;28;20640;-66
2022/03/02 03:58:33;;;;;;;26.47;14.10;;;0.80;1.00;;;;;;5034538;28;20545;-67
2022/03/02 04:00:59;;;;;;;26.93;12.70;;;0.80;1.00;;;;;;5049849;28;20548;-72
2022/03/02 04:03:25;;;;;;;21.90;13.40;;;0.80;1.00;;;;;;5055377;28;20509;-72
2022/03/02 04:05:50;;;;;;;28.13;14.63;;;0.80;1.00;;;;;;5042239;28;20183;-67
2022/03/02 04:08:16;;;;;;;25.03;14.60;;;0.90;1.00;;;;;;5035357;28;20174;-66
2022/03/02 04:10:42;;;;;;;25.60;13.40;;;0.90;1.00;;;;;;5045315;28;20171;-66
2022/03/02 04:13:08;;;;;;;29.80;15.23;;;0.90;1.00;;;;;;5054741;28;20520;-71
2022/03/02 04:15:37;;;;;;;22.30;13.80;;;0.90;1.00;;;;;;5045361;28;20425;-72
2022/03/02 04:18:03;;;;;;;29.27;15.27;;;0.80;1.00;;;;;;5035158;28;20186;-72
2022/03/02 04:20:29;;;;;;;29.40;14.63;;;0.90;1.00;;;;;;5042142;28;20424;-70
2022/03/02 04:22:55;;;;;;;25.10;12.87;;;0.90;1.00;;;;;;5055017;28;20409;-66
2022/03/02 04:25:20;;;;;;;25.40;15.50;;;0.80;1.00;;;;;;5044377;28;20525;-65
2022/03/02 04:27:46;;;;;;;28.07;17.10;;;0.80;1.00;;;;;;5035126;28;20164;-72
2022/03/02 04:30:14;;;;;;;23.47;13.33;;;0.80;1.00;;;;;;5042419;28;20258;-72
2022/03/02 04:32:39;;;;;;;29.30;13.43;;;0.80;1.00;;;;;;5053808;28;20222;-72
2022/03/02 04:35:07;;;;;;;34.03;16.10;;;0.80;1.00;;;;;;5047395;28;20498;-66
2022/03/02 04:37:33;;;;;;;28.03;14.50;;;0.80;1.00;;;;;;5034839;28;20171;-66
2022/03/02 04:39:59;;;;;;;27.30;15.63;;;0.80;1.00;;;;;;5036955;28;20811;-66
2022/03/02 04:42:24;;;;;;;25.40;14.70;;;0.80;1.00;;;;;;5033874;28;20188;-72
2022/03/02 04:44:50;;;;;;;33.27;14.80;;;0.60;1.00;;;;;;5033739;28;20176;-70
2022/03/02 04:47:15;;;;;;;26.33;12.70;;;0.50;1.00;;;;;;5034704;28;20222;-68
2022/03/02 04:49:41;;;;;;;22.30;13.10;;;0.50;1.00;;;;;;5037371;28;20178;-72
2022/03/02 04:52:07;;;;;;;25.03;13.50;;;0.50;1.00;;;;;;5054351;28;20282;-72
2022/03/02 04:57:16;;;;;;;26.00;13.90;;;0.50;1.00;;;;;;5034423;28;20440;-72
2022/03/02 04:59:42;;;;;;;20.23;13.03;;;0.50;1.00;;;;;;5034786;28;20680;-65
2022/03/02 05:02:08;;;;;;;27.50;13.80;;;0.50;1.00;;;;;;5045193;28;20215;-72
2022/03/02 05:04:33;;;;;;;27.90;13.90;;;0.40;1.00;;;;;;5034292;28;20186;-71
2022/03/02 05:06:59;;;;;;;18.93;11.67;;;0.20;1.00;;;;;;5035884;28;20242;-72
2022/03/02 05:09:25;;;;;;;33.50;17.37;;;0.00;1.00;;;;;;5052618;28;20600;-72
2022/03/02 05:11:50;;;;;;;30.27;13.80;;;0.10;1.00;;;;;;5053697;28;20189;-69
2022/03/02 05:14:16;;;;;;;25.83;14.33;;;0.20;1.00;;;;;;5034102;28;20621;-73
2022/03/02 05:16:41;;;;;;;33.73;14.80;;;0.20;1.00;;;;;;5034096;28;20167;-65
2022/03/02 05:19:07;;;;;;;26.90;13.50;;;0.20;1.00;;;;;;5034112;28;20187;-65
2022/03/02 05:21:33;;;;;;;27.07;14.20;;;0.20;1.00;;;;;;5033886;28;21118;-66
2022/03/02 05:23:58;;;;;;;26.17;15.60;;;0.20;1.00;;;;;;5050359;28;20171;-66
2022/03/02 05:26:24;;;;;;;26.37;14.20;;;0.20;1.00;;;;;;5053498;28;20171;-72
2022/03/02 05:28:50;;;;;;;27.53;13.87;;;0.20;1.00;;;;;;5037658;28;20171;-73
2022/03/02 05:31:15;;;;;;;27.83;16.13;;;0.20;1.00;;;;;;5033587;28;20195;-66
2022/03/02 05:33:41;;;;;;;28.50;14.00;;;0.20;1.00;;;;;;5046854;28;20171;-67
2022/03/02 05:36:06;;;;;;;31.27;14.67;;;0.20;1.00;;;;;;5053641;28;20249;-66
2022/03/02 05:38:32;;;;;;;22.07;12.90;;;0.20;1.00;;;;;;5040283;28;20297;-72
2022/03/02 05:40:57;;;;;;;23.73;13.37;;;0.20;1.00;;;;;;5033625;28;20196;-73
2022/03/02 05:43:23;;;;;;;25.50;14.13;;;0.00;1.00;;;;;;5033567;28;20171;-65
2022/03/02 05:45:49;;;;;;;31.73;14.40;;;0.00;1.00;;;;;;5042573;28;20194;-70
2022/03/02 05:48:14;;;;;;;22.03;13.33;;;0.00;1.00;;;;;;5053202;28;20250;-66
2022/03/02 05:50:40;;;;;;;22.80;14.33;;;0.10;1.00;;;;;;5044161;28;20561;-66
2022/03/02 05:53:08;;;;;;;24.97;13.53;;;0.10;1.00;;;;;;5033587;28;20171;-74
2022/03/02 05:55:34;;;;;;;24.77;13.43;;;0.00;1.00;;;;;;5039599;28;20186;-74
2022/03/02 05:58:00;;;;;;;31.07;15.77;;;0.00;1.00;;;;;;5052025;28;20175;-66
2022/03/02 06:00:25;;;;;;;31.98;15.32;;;0.10;1.00;;;;;;5047049;28;20491;-67
2022/03/02 06:02:58;;;;;;;23.77;13.90;;;0.10;1.00;;;;;;5033053;28;20255;-69
2022/03/02 06:05:24;;;;;;;26.10;14.60;;;0.10;1.00;;;;;;5036549;28;20194;-65
2022/03/02 06:07:50;;;;;;;25.17;13.33;;;0.10;1.00;;;;;;5053315;28;20163;-65
2022/03/02 06:10:19;;;;;;;32.53;16.23;;;0.10;1.00;;;;;;5048439;28;20184;-65
2022/03/02 06:12:46;;;;;;;27.52;14.82;;;0.10;1.10;;;;;;5033110;28;20188;-71
2022/03/02 06:15:13;;;;;;;33.95;18.70;;;0.20;5.20;;;;;;5033123;28;20207;-66
2022/03/02 06:17:41;;;;;;;30.10;15.50;;;0.20;8.40;;;;;;5053082;28;20171;-65
2022/03/02 06:20:08;;;;;;;23.83;14.70;;;0.20;6.50;;;;;;5051782;28;20198;-70
2022/03/02 06:22:34;;;;;;;29.98;15.77;;;0.00;1.00;;;;;;5030916;28;20199;-66
2022/03/02 06:25:00;;;;;;;24.17;11.43;;;-0.30;1.00;;;;;;5031893;28;20317;-65
2022/03/02 06:27:26;;;;;;;30.60;14.47;;;-0.40;1.00;;;;;;5051141;28;20423;-67
2022/03/02 06:29:51;;;;;;;32.50;16.07;;;-0.30;1.00;;;;;;5052007;28;20393;-72
2022/03/02 06:32:17;;;;;;;33.07;16.07;;;-0.20;8.40;;;;;;5035654;28;21040;-73
2022/03/02 06:34:43;;;;;;;24.90;14.87;;;-0.10;13.60;;;;;;5032986;28;20690;-66
2022/03/02 06:37:08;;;;;;;24.07;15.10;;;-0.10;17.20;;;;;;5047891;28;20182;-65
2022/03/02 06:39:34;;;;;;;28.43;13.63;;;0.00;23.70;;;;;;5050060;28;20198;-73
2022/03/02 06:42:23;;;;;;;26.83;15.23;;;0.00;24.70;;;;;;5038813;28;20199;-65
2022/03/02 06:45:00;;;;;;;23.80;13.27;;;0.10;24.90;;;;;;5031551;28;20506;-73
2022/03/02 06:47:51;;;;;;;33.35;18.65;;;0.10;24.80;;;;;;5032699;28;20186;-67
2022/03/02 06:50:23;;;;;;;23.25;16.25;;;0.20;25.00;;;;;;5032238;28;20195;-65
2022/03/02 06:52:53;;;;;;;34.13;15.90;;;0.20;24.90;;;;;;5033903;28;20203;-68
2022/03/02 06:55:18;;;;;;;34.45;15.25;;;0.20;24.90;;;;;;5049700;28;20167;-73
2022/03/02 06:57:56;;;;;;;33.83;16.57;;;0.20;24.90;;;;;;5051991;28;20698;-70
2022/03/02 07:00:23;;;;;;;20.38;15.02;;;0.30;25.00;;;;;;5049874;28;20667;-66
2022/03/02 07:03:09;;;;;;;37.33;15.18;;;0.30;25.00;;;;;;5052323;28;20256;-73
2022/03/02 07:05:37;;;;;;;27.20;13.52;;;0.30;26.10;;;;;;5052027;28;20159;-73
2022/03/02 07:08:04;;;;;;;28.52;18.30;;;0.40;30.30;;;;;;5056353;28;20202;-73
2022/03/02 07:10:34;;;;;;;30.60;18.05;;;0.40;34.40;;;;;;5055540;28;20570;-66
2022/03/02 07:13:01;;;;;;;34.50;17.75;;;0.50;37.50;;;;;;5056465;28;20509;-73
2022/03/02 07:15:32;;;;;;;36.35;18.75;;;0.60;41.70;;;;;;5055560;28;20853;-72
2022/03/02 07:18:04;;;;;;;32.20;19.88;;;0.70;47.50;;;;;;5056121;28;20178;-73
2022/03/02 07:20:30;;;;;;;24.65;16.38;;;0.70;53.50;;;;;;5053976;28;20207;-71
2022/03/02 07:22:57;;;;;;;36.92;17.02;;;0.80;57.10;;;;;;5054900;28;20179;-66
2022/03/02 07:25:33;;;;;;;31.27;17.03;;;0.90;60.00;;;;;;5056088;28;20708;-71
2022/03/02 07:28:00;;;;;;;29.43;17.30;;;1.00;63.20;;;;;;5055793;28;20419;-72
2022/03/02 07:30:27;;;;;;;34.77;16.50;;;1.00;67.20;;;;;;5055202;28;20482;-66
2022/03/02 07:32:57;;;;;;;32.93;17.43;;;1.10;74.00;;;;;;5055804;28;20421;-73
2022/03/02 07:35:25;;;;;;;30.17;18.77;;;1.20;74.50;;;;;;5055293;28;21019;-73
2022/03/02 07:37:54;;;;;;;40.57;17.97;;;1.20;74.60;;;;;;5055919;28;20397;-67
2022/03/02 07:40:19;;;;;;;33.17;16.40;;;1.30;74.60;;;;;;5054850;28;20452;-66
2022/03/02 07:42:45;;;;;;;38.70;17.43;;;1.40;82.00;;;;;;5055586;28;20425;-73
2022/03/02 07:45:11;;;;;;;27.30;15.13;;;1.40;88.90;;;;;;5055809;28;20171;-73
2022/03/02 07:47:37;;;;;;;30.10;17.10;;;1.50;92.30;;;;;;5055693;28;20886;-66
2022/03/02 07:50:04;;;;;;;33.20;17.10;;;1.60;95.20;;;;;;5054703;28;20666;-72
2022/03/02 07:52:34;;;;;;;36.30;18.43;;;1.70;98.00;;;;;;5055466;28;20471;-66
2022/03/02 07:55:07;;;;;;;31.70;18.20;;;1.80;99.90;;;;;;5055142;28;20407;-71
2022/03/02 07:57:33;;;;;;;38.00;18.00;;;1.90;99.90;;;;;;5055549;28;20405;-67
2022/03/02 07:59:59;;;;;;;31.67;17.40;;;2.00;99.90;;;;;;5054518;28;20545;-67
2022/03/02 08:02:29;;;;;;;32.57;16.20;;;2.10;99.90;;;;;;5055396;28;20428;-72
2022/03/02 08:04:56;;;;;;;46.50;19.53;;;2.20;99.90;;;;;;5054415;28;20417;-73
2022/03/02 08:07:22;;;;;;;33.03;17.60;;;2.30;99.90;;;;;;5055375;28;20404;-73
2022/03/02 08:09:51;;;;;;;46.20;19.97;;;2.40;99.90;;;;;;5054145;28;20402;-66
2022/03/02 08:12:20;;;;;;;31.40;19.00;;;2.50;99.90;;;;;;5054849;28;20425;-65
2022/03/02 08:14:48;;;;;;;40.50;19.60;;;2.60;99.90;;;;;;5055252;28;20489;-73
2022/03/02 08:17:14;;;;;;;40.97;20.60;;;2.70;99.90;;;;;;5053902;28;20413;-70
2022/03/02 08:19:39;;;;;;;34.60;20.00;;;2.90;99.90;;;;;;5054242;28;20445;-73
2022/03/02 08:22:11;;;;;;;37.73;19.63;;;3.00;99.90;;;;;;5054951;28;20222;-72
2022/03/02 08:24:41;;;;;;;35.13;19.87;;;3.20;99.90;;;;;;5054961;28;20163;-66
2022/03/02 08:27:11;;;;;;;36.50;18.40;;;3.30;99.90;;;;;;5054453;28;20398;-71
2022/03/02 08:29:38;;;;;;;33.27;17.53;;;3.40;99.90;;;;;;5054171;28;20402;-73
2022/03/02 08:32:05;;;;;;;41.43;20.77;;;3.50;99.90;;;;;;5054826;28;20949;-66
2022/03/02 08:34:32;;;;;;;35.10;18.67;;;3.60;99.90;;;;;;5054818;28;20393;-73
2022/03/02 08:36:59;;;;;;;44.27;20.40;;;3.60;99.90;;;;;;5054764;28;20405;-72
2022/03/02 08:39:25;;;;;;;57.43;22.23;;;3.80;99.90;;;;;;5053820;28;20534;-73
2022/03/02 08:41:52;;;;;;;37.60;18.03;;;3.90;99.90;;;;;;5053458;28;20536;-64
2022/03/02 08:44:18;;;;;;;40.90;22.87;;;4.00;99.90;;;;;;5054682;28;20393;-71
2022/03/02 08:46:45;;;;;;;40.47;21.03;;;4.10;99.90;;;;;;5053850;28;20405;-63
2022/03/02 08:49:12;;;;;;;48.17;20.97;;;4.10;99.90;;;;;;5053657;28;20406;-71
2022/03/02 08:51:39;;;;;;;43.07;21.37;;;4.20;99.90;;;;;;5053213;28;20440;-63
2022/03/02 08:54:05;;;;;;;38.40;18.00;;;4.30;99.90;;;;;;5054473;28;20410;-65
2022/03/02 08:56:37;;;;;;;39.83;21.70;;;4.40;99.90;;;;;;5054462;28;20401;-66
2022/03/02 08:59:04;;;;;;;49.73;21.10;;;4.40;99.90;;;;;;5053537;28;20504;-74
2022/03/02 09:01:31;;;;;;;44.00;21.77;;;4.50;99.90;;;;;;5054271;28;20515;-65
2022/03/02 09:03:59;;;;;;;40.37;19.73;;;4.60;99.90;;;;;;5054221;28;20757;-66
2022/03/02 09:06:27;;;;;;;43.60;23.30;;;4.80;99.90;;;;;;5053765;28;20405;-73
2022/03/02 09:08:55;;;;;;;42.40;21.00;;;4.90;99.90;;;;;;5053234;28;20809;-73
2022/03/02 09:11:20;;;;;;;33.70;17.90;;;4.90;99.90;;;;;;5054075;28;20929;-65
2022/03/02 09:13:49;;;;;;;40.10;19.03;;;4.80;99.90;;;;;;5054195;28;20417;-67
2022/03/02 09:16:15;;;;;;;33.23;17.17;;;4.60;99.90;;;;;;5053470;28;20409;-73
2022/03/02 09:18:41;;;;;;;37.77;20.00;;;4.60;99.90;;;;;;5052984;28;20465;-66
2022/03/02 09:21:07;;;;;;;39.63;18.50;;;4.60;99.90;;;;;;5053892;28;20426;-64
2022/03/02 09:23:38;;;;;;;45.67;20.07;;;4.60;99.90;;;;;;5053270;28;20394;-73
2022/03/02 09:26:13;;;;;;;41.23;20.37;;;4.50;99.90;;;;;;5053860;28;20870;-65
2022/03/02 09:28:51;;;;;;;47.37;21.20;;;4.60;99.90;;;;;;5052598;28;20408;-68
2022/03/02 09:31:20;;;;;;;40.47;19.50;;;4.90;99.90;;;;;;5053578;28;20431;-67
2022/03/02 09:34:08;;;;;;;35.60;18.80;;;5.20;99.90;;;;;;5053874;28;20405;-66
2022/03/02 09:36:38;;;;;;;41.60;20.37;;;5.50;99.90;;;;;;5053743;28;20770;-73
2022/03/02 09:39:09;;;;;;;39.03;19.73;;;5.70;99.90;;;;;;5052691;28;20441;-73
2022/03/02 09:41:49;;;;;;;36.73;21.00;;;6.00;99.90;;;;;;5053538;28;20825;-74
2022/03/02 09:44:19;;;;;;;33.97;18.80;;;6.30;99.90;;;;;;5052985;28;20409;-66
2022/03/02 09:46:49;;;;;;;30.50;16.67;;;6.70;99.90;;;;;;5052287;28;20413;-66
2022/03/02 09:49:20;;;;;;;38.17;20.10;;;6.90;90.80;;;;;;5052347;28;20408;-66
2022/03/02 09:52:07;;;;;;;35.77;18.90;;;6.80;61.50;;;;;;5053417;28;20838;-66
2022/03/02 09:54:38;;;;;;;31.20;18.13;;;6.70;40.50;;;;;;5052199;28;20417;-73
2022/03/02 09:57:06;;;;;;;32.03;16.23;;;6.30;16.10;;;;;;5053336;28;20404;-74
2022/03/02 09:59:38;;;;;;;32.97;16.87;;;6.00;13.00;;;;;;5052268;28;20454;-74
2022/03/02 10:02:10;;;;;;;29.80;18.23;;;5.90;21.90;;;;;;5052974;28;20421;-71
2022/03/02 10:04:37;;;;;;;40.67;19.70;;;6.10;33.60;;;;;;5052667;28;20400;-67
2022/03/02 10:10:04;;;;;;;36.90;20.97;;;6.60;26.40;;;;;;5052627;28;20409;-66
2022/03/02 10:12:34;;;;;;;38.27;18.73;;;6.60;1.00;;;;;;5051792;28;20480;-73
2022/03/02 10:15:01;;;;;;;42.83;20.67;;;6.40;1.00;;;;;;5053063;28;20412;-74
2022/03/02 10:17:41;;;;;;;47.47;20.93;;;6.20;1.00;;;;;;5053000;28;20412;-74
2022/03/02 10:20:14;;;;;;;32.87;16.70;;;6.10;1.00;;;;;;5051916;28;20493;-69
2022/03/02 10:22:40;;;;;;;36.10;18.60;;;6.50;1.00;;;;;;5052441;28;20425;-74
2022/03/02 10:25:08;;;;;;;37.13;18.27;;;7.20;1.00;;;;;;5052861;28;20769;-73
2022/03/02 10:27:54;;;;;;;30.57;18.23;;;7.70;1.00;;;;;;5052807;28;20162;-66
2022/03/02 10:30:20;;;;;;;44.43;20.40;;;8.30;1.00;;;;;;5052025;28;20913;-74
2022/03/02 10:32:49;;;;;;;33.40;19.93;;;8.90;1.00;;;;;;5051462;28;20445;-66
2022/03/02 10:35:21;;;;;;;38.07;18.17;;;9.30;1.00;;;;;;5052635;28;20178;-67
2022/03/02 10:37:58;;;;;;;35.73;18.77;;;9.60;1.00;;;;;;5052385;28;20510;-74
2022/03/02 10:40:24;;;;;;;30.00;17.80;;;9.30;1.00;;;;;;5052446;28;20456;-69
2022/03/02 10:42:57;;;;;;;32.50;19.00;;;9.10;1.00;;;;;;5056834;28;20905;-75
2022/03/02 10:45:27;;;;;;;37.20;22.37;;;9.30;1.00;;;;;;5055525;28;20417;-74
2022/03/02 10:47:58;;;;;;;38.43;19.20;;;9.40;1.00;;;;;;5056879;28;20535;-68
2022/03/02 10:50:27;;;;;;;33.30;17.43;;;9.30;1.00;;;;;;5055891;28;20433;-66
2022/03/02 10:52:55;;;;;;;29.03;18.30;;;9.20;1.00;;;;;;5056726;28;20542;-68
2022/03/02 10:55:22;;;;;;;31.67;18.43;;;9.30;1.00;;;;;;5056711;28;20463;-75
2022/03/02 10:57:49;;;;;;;38.10;17.83;;;9.30;1.00;;;;;;5054897;28;20894;-67
2022/03/02 11:00:18;;;;;;;37.00;18.33;;;9.30;1.00;;;;;;5055630;28;20976;-73
2022/03/02 11:02:46;;;;;;;35.77;20.13;;;8.90;1.00;;;;;;5056396;28;20421;-66
2022/03/02 11:05:15;;;;;;;33.00;18.77;;;8.80;1.00;;;;;;5056583;28;20409;-73
2022/03/02 11:07:42;;;;;;;29.43;17.83;;;8.60;1.00;;;;;;5056397;28;20481;-73
2022/03/02 11:10:10;;;;;;;37.07;22.17;;;8.20;1.00;;;;;;5055524;28;20405;-74
2022/03/02 11:12:44;;;;;;;37.50;18.53;;;7.60;1.00;;;;;;5056290;28;20425;-66
2022/03/02 11:15:11;;;;;;;33.93;18.43;;;7.40;1.00;;;;;;5056396;28;20397;-65
2022/03/02 11:17:59;;;;;;;34.43;20.33;;;7.50;1.00;;;;;;5055626;28;20409;-66
2022/03/02 11:20:28;;;;;;;36.77;20.00;;;7.30;1.00;;;;;;5055403;28;20506;-66
2022/03/02 11:23:02;;;;;;;40.23;20.27;;;7.30;1.00;;;;;;5056248;28;20405;-66
2022/03/02 11:25:47;;;;;;;42.40;20.80;;;7.30;1.00;;;;;;5054776;28;20906;-75
2022/03/02 11:28:24;;;;;;;41.37;21.33;;;7.00;1.00;;;;;;5056152;28;20408;-67
2022/03/02 11:30:55;;;;;;;44.73;21.07;;;6.60;1.00;;;;;;5055419;28;20459;-72
2022/03/02 11:33:26;;;;;;;36.40;20.17;;;6.20;1.00;;;;;;5055071;28;20819;-74
2022/03/02 11:35:59;;;;;;;41.03;21.73;;;6.30;1.00;;;;;;5055316;28;20478;-74
2022/03/02 11:38:31;;;;;;;32.63;20.80;;;6.60;1.00;;;;;;5055799;28;20405;-73
2022/03/02 11:40:58;;;;;;;30.63;19.37;;;6.90;1.00;;;;;;5055983;28;20474;-76
2022/03/02 11:43:28;;;;;;;34.87;19.70;;;7.10;1.00;;;;;;5054900;28;20449;-66
2022/03/02 11:45:58;;;;;;;28.87;19.30;;;7.50;1.00;;;;;;5055762;28;20905;-70
2022/03/02 11:48:29;;;;;;;34.53;19.70;;;7.60;1.00;;;;;;5054290;28;20409;-66
2022/03/02 11:51:12;;;;;;;33.70;19.67;;;8.10;1.00;;;;;;5055361;28;20448;-74
2022/03/02 11:53:51;;;;;;;27.47;16.57;;;8.20;1.00;;;;;;5055456;28;20897;-71
2022/03/02 11:56:19;;;;;;;30.93;17.60;;;8.50;1.00;;;;;;5055489;28;20409;-74
2022/03/02 11:59:05;;;;;;;38.33;22.23;;;8.80;1.00;;;;;;5054601;28;20956;-67
2022/03/02 12:01:42;;;;;;;28.70;18.80;;;9.00;1.00;;;;;;5055838;28;20778;-67
2022/03/02 12:04:08;;;;;;;30.60;17.97;;;8.60;1.00;;;;;;5054103;28;20413;-75
2022/03/02 12:06:50;;;;;;;40.07;21.57;;;8.40;1.00;;;;;;5055372;28;20766;-74
2022/03/02 12:09:28;;;;;;;38.27;20.07;;;8.00;1.00;;;;;;5053165;28;20491;-67
2022/03/02 12:12:06;;;;;;;35.57;20.30;;;7.80;1.00;;;;;;5054523;28;20528;-66
2022/03/02 12:15:05;;;;;;;40.93;21.40;;;7.90;1.00;;;;;;5055137;28;20898;-66
2022/03/02 12:17:36;;;;;;;35.87;19.10;;;7.70;1.00;;;;;;5043475;28;20433;-66
2022/03/02 12:20:14;;;;;;;36.13;19.30;;;7.80;1.00;;;;;;5054121;28;20452;-75
2022/03/02 12:22:45;;;;;;;41.23;20.37;;;7.70;1.00;;;;;;5055014;28;20922;-66
2022/03/02 12:25:13;;;;;;;30.50;19.40;;;7.60;1.00;;;;;;5055103;28;20408;-75
2022/03/02 12:27:40;;;;;;;38.70;19.37;;;7.60;1.00;;;;;;5054545;28;20398;-75
2022/03/02 12:30:11;;;;;;;40.03;19.77;;;7.80;1.00;;;;;;5054030;28;20407;-67
2022/03/02 12:32:39;;;;;;;36.07;18.47;;;7.90;1.00;;;;;;5054827;28;20445;-66
2022/03/02 12:35:08;;;;;;;31.57;17.37;;;8.00;1.00;;;;;;5054808;28;20407;-72
2022/03/02 12:37:35;;;;;;;29.50;17.00;;;7.90;1.00;;;;;;5055024;28;20401;-75
2022/03/02 12:40:09;;;;;;;40.30;20.40;;;7.70;1.00;;;;;;5053805;28;20450;-67
2022/03/02 12:42:37;;;;;;;30.23;15.87;;;7.80;1.00;;;;;;5054526;28;20466;-75
2022/03/02 12:45:03;;;;;;;39.90;19.13;;;7.90;1.00;;;;;;5054232;28;20398;-74
2022/03/02 12:47:31;;;;;;;30.43;18.30;;;7.80;1.00;;;;;;5054716;28;20410;-66
2022/03/02 12:49:57;;;;;;;32.27;17.40;;;7.60;1.00;;;;;;5053687;28;20504;-66
2022/03/02 12:52:25;;;;;;;28.47;17.80;;;7.40;1.00;;;;;;5054457;28;20422;-68
2022/03/02 12:54:52;;;;;;;33.70;18.40;;;7.40;1.00;;;;;;5054603;28;20402;-66